Latest Weather Observations for Liawenee

IDT60801

Issued at 9:01 pm EDT Thursday 5 March 2015 (issued every 30 minutes, with the page automatically refreshed every 10 minutes)

About weather observations | Map of weather stations | Latest weather observations for TAS | Other Formats
Station Details ID: 096033 Name: LIAWENEE Lat: -41.90 Lon: 146.67 Height: 1057.0 m
Data from the previous 72 hours. | See also: Recent months at Liawenee
Date/Time
EDT
Temp
°C
App
Temp
°C
Dew
Point
Rel
Hum
%
Delta-T
°C
Wind Press
QNH
hPa
Press
MSL
hPa
Rain
since 9 am
mm
Dir
 
Spd
km/h
Gust
km/h
Spd
kts
Gust
kts
05/09:00pm 4.3 -0.2 2.2 86 0.9 W 15 26 8 14 1001.0 999.3 0.0
05/08:30pm 3.8 -1.7 1.8 87 0.9 WNW 20 32 11 17 1000.8 999.0 0.0
05/08:00pm 3.8 -1.8 1.5 85 1.0 W 20 32 11 17 1001.2 999.5 0.0
05/07:30pm 3.9 -1.5 1.4 84 1.0 W 19 43 10 23 1002.2 1000.5 0.0
05/07:00pm 4.2 -2.1 1.4 82 1.2 W 24 39 13 21 1002.6 1000.8 0.0
05/06:30pm 4.4 -1.5 1.9 84 1.1 W 22 35 12 19 1003.2 1001.5 0.0
05/06:00pm 4.2 -2.6 1.1 80 1.3 W 26 37 14 20 1003.7 1002.0 0.0
05/05:36pm 4.3 -3.7 0.6 77 1.5 W 32 50 17 27 1004.1 1002.4 0.0
05/05:30pm 4.2 -3.9 0.9 79 1.4 W 33 50 18 27 1004.3 1002.7 0.0
05/05:14pm 4.4 -3.6 1.8 83 1.1 W 33 52 18 28 1004.5 1002.9 0.0
05/05:00pm 4.3 -4.5 1.5 82 1.2 WSW 37 52 20 28 1004.5 1002.9 0.0
05/04:38pm 5.2 -4.9 0.2 70 2.1 WSW 43 65 23 35 1004.2 1002.5 0.0
05/04:30pm 6.6 -3.0 0.9 67 2.4 WSW 41 57 22 31 1004.3 1002.7 0.0
05/04:09pm 6.5 -3.7 -0.5 61 2.9 WSW 43 63 23 34 1004.9 1003.2 0.0
05/04:00pm 6.4 -3.6 1.1 69 2.3 W 43 57 23 31 1005.1 1003.5 0.0
05/03:40pm 6.0 -3.2 1.0 70 2.1 WSW 39 57 21 31 1005.2 1003.6 0.0
05/03:30pm 6.0 -3.7 0.6 68 2.3 WSW 41 54 22 29 1005.5 1003.9 0.0
05/03:00pm 5.2 -4.3 1.5 77 1.6 WSW 41 59 22 32 1006.0 1004.4 0.0
05/02:56pm 5.2 -3.7 1.0 74 1.8 WSW 37 59 20 32 1006.0 1004.4 0.0
05/02:30pm 5.1 -4.8 1.8 79 1.4 WSW 43 54 23 29 1006.1 1004.5 0.0
05/02:00pm 5.8 -4.1 2.6 80 1.4 WSW 44 63 24 34 1006.2 1004.6 0.0
05/01:52pm 5.2 -4.8 2.0 80 1.4 WSW 44 63 24 34 1006.2 1004.6 0.0
05/01:30pm 5.4 -4.7 1.3 75 1.7 WSW 44 57 24 31 1006.5 1004.9 0.0
05/01:16pm 5.2 -3.6 1.3 76 1.6 WSW 37 56 20 30 1006.9 1005.3 0.0
05/01:00pm 4.7 -4.4 1.6 80 1.3 WSW 39 54 21 29 1007.2 1005.6 0.0
05/12:51pm 5.1 -3.2 2.3 82 1.2 WSW 35 54 19 29 1007.3 1005.7 0.0
05/12:30pm 4.7 -3.9 2.4 85 1.0 SW 37 50 20 27 1007.4 1005.8 0.0
05/12:00pm 3.8 -5.4 1.4 84 1.0 SW 39 52 21 28 1007.4 1005.8 0.0
05/11:30am 2.4 -7.6 0.8 89 0.6 WSW 43 56 23 30 1007.3 1005.7 0.0
05/11:08am 2.0 -7.8 0.1 87 0.8 WSW 41 59 22 32 1007.2 1005.6 0.0
05/11:00am 1.6 -8.2 0.1 90 0.6 WSW 41 56 22 30 1007.3 1005.7 0.0
05/10:30am 1.0 -7.1 -0.3 91 0.5 SW 32 52 17 28 1007.2 1005.6 0.0
05/10:26am 0.8 -7.0 -0.6 90 0.5 SW 30 48 16 26 1007.3 1005.7 0.0
05/10:00am 0.9 -7.9 -1.0 87 0.7 SW 35 52 19 28 1006.7 1005.0 0.0
05/09:45am 1.1 -7.3 -0.7 88 0.7 SW 33 52 18 28 1006.2 1004.6 0.0
05/09:30am 0.3 -8.4 -0.8 92 0.4 SW 35 52 19 28 1006.0 1004.4 0.0
05/09:00am 0.2 -10.7 -0.9 92 0.4 SW 46 65 25 35 1005.2 1003.6 7.4
05/08:30am 0.0 -8.7 -0.7 95 0.3 SW 35 54 19 29 1004.2 1002.5 7.4
05/08:01am 0.1 -9.8 -0.6 95 0.3 SW 41 63 22 34 1003.3 1001.6 7.4
05/08:00am 0.1 -9.8 -0.6 95 0.3 SW 41 57 22 31 1003.3 1001.6 7.2
05/07:48am 0.0 -8.7 -0.3 98 0.1 SW 35 54 19 29 1003.0 1001.3 7.2
05/07:30am 0.1 -9.3 -0.3 97 0.2 SW 39 50 21 27 1002.3 1000.6 7.0
05/07:00am 0.1 -9.3 -0.3 97 0.2 SW 39 50 21 27 1001.4 999.7 6.0
05/06:36am 0.1 -10.3 -0.5 96 0.2 SW 44 63 24 34 1000.8 999.0 5.4
05/06:30am 0.1 -10.1 -0.3 97 0.2 SW 43 54 23 29 1000.7 998.9 5.4
05/06:00am -0.3 -8.0 -0.4 99 0.0 SW 30 41 16 22 1000.3 998.6 5.4
05/05:35am 0.0 -9.8 -0.3 98 0.1 SW 41 59 22 32 1000.1 998.4 5.2
05/05:30am 0.1 -9.3 -0.2 98 0.1 WSW 39 54 21 29 999.9 998.1 5.2
05/05:07am 0.3 -9.9 0.0 98 0.1 SW 43 61 23 33 999.0 997.2 4.8
05/05:00am 0.2 -10.2 -0.1 98 0.1 SW 44 57 24 31 998.9 997.1 4.8
05/04:51am 0.2 -8.0 0.1 99 0.0 WSW 33 57 18 31 998.9 997.1 4.8
05/04:30am 0.2 -8.4 0.1 99 0.0 SW 35 43 19 23 998.5 996.7 4.4
05/04:00am 0.3 -8.0 0.0 98 0.1 WSW 33 46 18 25 997.9 996.1 4.2
05/03:30am 0.2 -6.3 0.1 99 0.0 WSW 24 32 13 17 998.0 996.2 3.6
05/03:00am 0.4 -5.8 0.0 97 0.2 WSW 22 30 12 16 997.9 996.1 3.0
05/02:30am 2.7 -3.6 1.7 93 0.4 WSW 24 33 13 18 997.5 995.6 1.6
05/02:00am 3.6 -2.9 2.6 93 0.4 W 26 43 14 23 997.6 995.7 1.2
05/01:30am 3.9 -1.8 2.6 91 0.6 WSW 22 35 12 19 997.7 995.9 1.2
05/01:00am 4.3 -1.7 3.3 93 0.4 W 24 35 13 19 998.1 996.3 1.0
05/12:30am 4.8 -3.3 3.3 90 0.7 W 35 56 19 30 998.0 996.2 0.6
05/12:16am 5.4 -1.6 4.1 91 0.6 W 30 48 16 26 998.1 996.3 0.2
05/12:00am 5.6 -1.8 4.1 90 0.7 W 32 43 17 23 998.0 996.2 0.0
 
Date/Time
EDT
Temp
°C
App
Temp
°C
Dew
Point
Rel
Hum
%
Delta-T
°C
Wind Press
QNH
hPa
Press
MSL
hPa
Rain
since 9 am
mm
Dir
 
Spd
km/h
Gust
km/h
Spd
kts
Gust
kts
04/11:30pm 6.2 -1.8 4.0 86 1.0 W 35 54 19 29 998.2 996.4 0.0
04/11:25pm 6.3 -1.3 4.0 85 1.0 W 33 52 18 28 998.2 996.4 0.0
04/11:00pm 6.3 0.6 4.8 90 0.7 WNW 24 37 13 20 998.8 997.0 0.0
04/10:35pm 6.9 0.3 4.2 83 1.2 W 28 46 15 25 999.5 997.7 0.0
04/10:30pm 6.9 0.3 4.4 84 1.2 W 28 44 15 24 999.5 997.7 0.0
04/10:00pm 7.1 -0.6 5.3 88 0.9 W 35 46 19 25 1000.1 998.4 0.0
04/09:30pm 7.8 -0.3 5.3 84 1.2 WNW 37 56 20 30 1000.3 998.6 0.0
04/09:06pm 7.9 1.6 5.7 86 1.1 WNW 28 46 15 25 1000.1 998.4 0.0
04/09:00pm 7.7 1.8 5.8 88 0.9 WNW 26 46 14 25 1000.1 998.4 0.0
04/08:30pm 7.4 2.7 5.0 85 1.1 WNW 19 30 10 16 1000.3 998.6 0.0
04/08:00pm 7.6 1.9 4.7 82 1.4 WNW 24 35 13 19 1000.8 999.0 0.0
04/07:30pm 7.9 -0.1 5.7 86 1.1 W 37 56 20 30 1001.8 1000.1 0.0
04/07:00pm 9.4 3.3 6.5 82 1.4 WNW 28 46 15 25 1001.4 999.7 0.0
04/06:41pm 9.7 3.5 6.1 78 1.8 WNW 28 50 15 27 1001.8 1000.1 0.0
04/06:30pm 10.3 4.0 5.9 74 2.2 WNW 28 43 15 23 1001.8 1000.1 0.0
04/06:00pm 10.5 3.4 6.5 76 2.0 WNW 33 54 18 29 1002.1 1000.4 0.0
04/05:35pm 10.6 3.6 6.2 74 2.2 WNW 32 50 17 27 1002.6 1000.8 0.0
04/05:30pm 10.9 3.8 6.5 74 2.2 WNW 33 50 18 27 1002.7 1001.0 0.0
04/05:00pm 12.0 4.8 6.1 67 3.0 WNW 33 54 18 29 1002.9 1001.2 0.0
04/04:30pm 12.9 3.7 6.5 65 3.2 W 44 65 24 35 1003.6 1001.9 0.0
04/04:00pm 12.7 3.6 6.1 64 3.3 WNW 43 63 23 34 1003.6 1001.9 0.0
04/03:30pm 12.9 3.9 6.3 64 3.3 WNW 43 63 23 34 1003.9 1002.2 0.0
04/03:00pm 13.2 3.7 6.8 65 3.3 WNW 46 67 25 36 1004.1 1002.4 0.0
04/02:30pm 14.3 6.1 6.4 59 4.0 WNW 39 65 21 35 1004.4 1002.8 0.0
04/02:00pm 12.3 5.4 7.2 71 2.6 WNW 33 52 18 28 1004.8 1003.1 0.0
04/01:30pm 12.5 3.8 6.1 65 3.2 W 41 59 22 32 1005.1 1003.5 0.0
04/01:00pm 13.0 5.8 7.5 69 2.9 W 35 54 19 29 1005.1 1003.5 0.0
04/12:44pm 11.6 3.8 6.5 71 2.6 WNW 37 56 20 30 1005.7 1004.0 0.0
04/12:30pm 11.7 3.4 6.2 69 2.7 WNW 39 54 21 29 1005.8 1004.1 0.0
04/12:00pm 12.0 4.0 5.9 66 3.0 WNW 37 57 20 31 1006.4 1004.8 0.0
04/11:31am 11.4 3.7 6.9 74 2.3 WNW 37 56 20 30 1006.4 1004.8 0.0
04/11:30am 11.2 3.9 7.3 77 2.0 WNW 35 52 19 28 1006.4 1004.8 0.0
04/11:00am 11.7 3.8 6.0 68 2.8 W 37 61 20 33 1006.4 1004.8 0.0
04/10:30am 10.1 2.6 6.1 76 2.0 WNW 35 56 19 30 1006.8 1005.2 0.0
04/10:02am 9.7 2.2 6.1 78 1.8 W 35 56 19 30 1006.8 1005.2 0.0
04/10:00am 9.7 2.6 6.4 80 1.6 W 33 48 18 26 1006.8 1005.2 0.0
04/09:30am 9.0 0.6 5.6 79 1.6 W 39 59 21 32 1007.1 1005.5 0.0
04/09:11am 9.5 1.8 5.5 76 1.9 WNW 35 54 19 29 1006.7 1005.0 0.0
04/09:00am 8.9 1.1 5.1 77 1.8 WNW 35 50 19 27 1006.7 1005.0 0.0
04/08:33am 8.2 0.1 5.1 81 1.5 W 37 61 20 33 1007.0 1005.4 0.0
04/08:30am 8.2 0.4 5.1 81 1.5 W 35 52 19 28 1007.0 1005.4 0.0
04/08:27am 8.1 0.7 5.0 81 1.5 W 33 52 18 28 1006.9 1005.3 0.0
04/08:00am 7.7 0.3 4.8 82 1.4 W 33 46 18 25 1006.4 1004.8 0.0
04/07:30am 7.3 -0.1 4.8 84 1.2 W 33 46 18 25 1006.5 1004.9 0.0
04/07:05am 6.9 -0.9 4.7 86 1.0 W 35 54 19 29 1006.4 1004.8 0.0
04/07:00am 6.8 -1.1 4.6 86 1.0 W 35 52 19 28 1006.3 1004.7 0.0
04/06:32am 6.6 -0.7 4.6 87 0.9 W 32 50 17 27 1006.3 1004.7 0.0
04/06:30am 6.5 -1.0 4.3 86 1.0 W 33 50 18 27 1006.2 1004.6 0.0
04/06:00am 6.6 -1.7 4.1 84 1.2 W 37 59 20 32 1006.4 1004.8 0.0
04/05:33am 6.5 -0.5 4.2 85 1.1 W 30 48 16 26 1006.8 1005.2 0.0
04/05:30am 6.5 0.3 4.2 85 1.1 W 26 43 14 23 1006.8 1005.2 0.0
04/05:13am 6.5 -0.1 4.0 84 1.1 WNW 28 46 15 25 1007.1 1005.5 0.0
04/05:00am 6.4 0.5 3.9 84 1.1 WNW 24 37 13 20 1007.1 1005.5 0.0
04/04:30am 6.2 0.3 3.7 84 1.1 WNW 24 39 13 21 1007.3 1005.7 0.0
04/04:00am 6.0 -1.7 3.2 82 1.3 W 33 46 18 25 1007.5 1006.0 0.0
04/03:35am 6.0 -1.8 2.8 80 1.4 W 33 52 18 28 1007.8 1006.2 0.0
04/03:30am 6.0 -1.6 2.8 80 1.4 W 32 48 17 26 1007.9 1006.3 0.0
04/03:01am 6.0 -2.6 2.8 80 1.4 W 37 56 20 30 1008.4 1006.9 0.0
04/03:00am 6.0 -2.9 2.8 80 1.4 W 39 56 21 30 1008.5 1007.0 0.0
04/02:30am 5.9 -1.9 3.1 82 1.2 W 33 52 18 28 1008.6 1007.1 0.0
04/02:00am 5.8 -2.5 2.4 79 1.5 W 35 59 19 32 1009.0 1007.4 0.0
04/01:30am 5.2 -2.2 1.9 79 1.4 W 30 48 16 26 1009.4 1007.9 0.0
04/01:03am 5.3 -2.7 1.6 77 1.6 W 33 52 18 28 1010.1 1008.6 0.0
04/01:00am 5.4 -3.0 1.5 76 1.7 W 35 52 19 28 1010.1 1008.6 0.0
04/12:30am 6.2 -0.7 2.8 79 1.5 W 28 41 15 22 1010.6 1009.1 0.0
04/12:00am 6.0 -0.1 2.8 80 1.4 W 24 33 13 18 1010.9 1009.4 0.0
 
Date/Time
EDT
Temp
°C
App
Temp
°C
Dew
Point
Rel
Hum
%
Delta-T
°C
Wind Press
QNH
hPa
Press
MSL
hPa
Rain
since 9 am
mm
Dir
 
Spd
km/h
Gust
km/h
Spd
kts
Gust
kts
03/11:30pm 5.8 -0.7 2.6 80 1.4 W 26 39 14 21 1011.3 1009.8 0.0
03/11:00pm 5.2 -0.1 1.9 79 1.4 W 19 28 10 15 1011.8 1010.3 0.0
03/10:30pm 5.1 -1.2 1.6 78 1.5 W 24 33 13 18 1012.2 1010.7 0.0
03/10:00pm 4.8 -2.7 1.5 79 1.4 W 30 37 16 20 1012.3 1010.8 0.0
03/09:30pm 4.7 -1.3 1.2 78 1.5 WSW 22 32 12 17 1012.4 1010.9 0.0
03/09:00pm 5.0 0.0 1.3 77 1.6 W 17 26 9 14 1012.5 1011.1 0.0
03/08:30pm 6.0 0.4 1.5 73 1.9 W 20 30 11 16 1012.2 1010.7 0.0
03/08:00pm 7.3 1.7 1.2 65 2.6 WSW 20 26 11 14 1012.0 1010.5 0.0
03/07:30pm 9.5 3.9 0.9 55 3.8 W 20 26 11 14 1012.0 1010.5 0.0
03/07:00pm 11.2 5.2 1.2 50 4.5 W 22 26 12 14 1012.2 1010.7 0.0
03/06:30pm 12.1 6.1 1.1 47 4.9 W 22 30 12 16 1012.2 1010.7 0.0
03/06:00pm 13.0 7.3 0.7 43 5.5 W 20 30 11 16 1012.4 1010.9 0.0
03/05:30pm 14.1 8.5 1.1 41 5.9 W 20 30 11 16 1012.5 1011.1 0.0
03/05:00pm 14.3 7.3 -0.6 36 6.6 W 26 37 14 20 1012.7 1011.3 0.0
03/04:30pm 14.8 8.6 -0.5 35 6.8 W 22 32 12 17 1012.6 1011.2 0.0
03/04:00pm 14.4 8.5 -0.5 36 6.6 WNW 20 30 11 16 1013.1 1011.6 0.0
03/03:30pm 14.9 9.0 -0.8 34 6.9 W 20 32 11 17 1013.2 1011.7 0.0
03/03:00pm 14.4 8.8 1.0 40 6.1 W 20 33 11 18 1013.4 1012.0 0.0
03/02:30pm 15.0 9.3 0.8 38 6.5 W 20 41 11 22 1013.7 1012.3 0.0
03/02:00pm 14.0 9.2 2.6 46 5.4 W 17 28 9 15 1013.9 1012.4 0.0
03/01:30pm 13.7 8.2 2.0 45 5.4 W 20 30 11 16 1014.2 1012.8 0.0
03/01:00pm 13.5 9.3 3.6 51 4.7 WSW 15 22 8 12 1014.2 1012.8 0.0
03/12:30pm 12.2 7.4 2.4 51 4.5 WNW 17 26 9 14 1014.5 1013.1 0.0
03/12:00pm 13.3 8.3 3.4 51 4.7 W 19 33 10 18 1015.0 1013.5 0.0
03/11:30am 11.4 6.5 2.2 53 4.2 W 17 24 9 13 1015.1 1013.7 0.0
03/11:00am 11.1 6.4 2.9 57 3.8 W 17 24 9 13 1015.1 1013.7 0.0
03/10:30am 10.1 6.2 3.6 64 3.0 W 13 20 7 11 1015.1 1013.7 0.0
03/10:00am 9.7 4.5 3.7 66 2.8 WSW 20 32 11 17 1014.7 1013.3 0.0
03/09:30am 9.6 4.2 4.6 71 2.4 WSW 22 30 12 16 1014.6 1013.2 0.0
03/09:00am 8.5 3.4 4.3 75 2.0 WSW 20 32 11 17 1014.5 1013.1 -
03/08:30am 7.8 3.1 5.3 84 1.2 WSW 19 24 10 13 1014.2 1012.8 -
03/08:00am 6.5 2.3 5.6 94 0.4 WSW 17 24 9 13 1014.0 1012.5 -
03/07:30am 6.5 1.8 5.0 90 0.7 WSW 19 24 10 13 1013.6 1012.2 -
03/07:00am 5.7 0.8 4.2 90 0.7 WSW 19 24 10 13 1013.3 1011.8 -
03/06:30am 6.8 1.5 5.1 89 0.8 WSW 22 30 12 16 1013.0 1011.5 -
03/06:00am 6.5 2.3 5.5 93 0.5 WSW 17 22 9 12 1012.5 1011.1 -
03/05:30am 6.0 1.6 5.0 93 0.5 W 17 28 9 15 1012.4 1010.9 -
03/05:00am 5.8 1.7 4.4 91 0.6 W 15 20 8 11 1012.3 1010.8 -
03/04:30am 4.8 0.6 3.8 93 0.4 W 15 19 8 10 1012.3 1010.8 -
03/04:00am 4.8 0.6 3.6 92 0.5 W 15 22 8 12 1012.3 1010.8 -
03/03:30am 4.9 0.2 3.4 90 0.7 WNW 17 24 9 13 1012.3 1010.8 -
03/03:00am 4.0 -0.1 2.5 90 0.6 WNW 13 17 7 9 1012.7 1011.3 -
03/02:30am 4.8 0.0 2.7 86 0.9 W 17 22 9 12 1013.0 1011.5 -
03/02:00am 5.3 1.0 3.2 86 0.9 W 15 20 8 11 1013.3 1011.8 -
03/01:30am 5.2 0.4 2.7 84 1.1 W 17 26 9 14 1013.5 1012.1 -
03/01:00am 5.6 0.3 2.9 83 1.2 W 20 28 11 15 1013.9 1012.4 -
03/12:30am 4.7 -1.1 2.4 85 1.0 W 22 26 12 14 1014.1 1012.6 0.0
03/12:00am 4.2 -1.1 1.9 85 1.0 WSW 19 24 10 13 1014.4 1013.0 0.0
 
Date/Time
EDT
Temp
°C
App
Temp
°C
Dew
Point
Rel
Hum
%
Delta-T
°C
Wind Press
QNH
hPa
Press
MSL
hPa
Rain
since 9 am
mm
Dir
 
Spd
km/h
Gust
km/h
Spd
kts
Gust
kts
02/11:30pm 5.1 -0.1 2.6 84 1.1 W 19 28 10 15 1014.3 1012.9 0.0
02/11:00pm 5.9 -0.5 3.4 84 1.1 W 26 32 14 17 1014.2 1012.8 0.0
02/10:30pm 6.8 1.3 4.1 83 1.2 W 22 30 12 16 1014.5 1013.1 0.0
02/10:00pm 7.0 1.6 4.5 84 1.2 WNW 22 33 12 18 1014.5 1013.1 0.0
02/09:30pm 7.0 2.2 4.7 85 1.1 WNW 19 26 10 14 1014.4 1013.0 0.0

Other Formats:

Comma delimited format used in spreadsheet applications
http://www.bom.gov.au/fwo/IDT60801/IDT60801.95959.axf

JavaScript Object Notation format (JSON) in row-major order
http://www.bom.gov.au/fwo/IDT60801/IDT60801.95959.json